Time;durP1;ratioP1;P1;durP2;ratioP2;P2;SDS_P1;SDS_P2;PMS_P1;PMS_P2;Temp;Humidity;BMP_temperature;BMP_pressure;BME280_temperature;BME280_humidity;BME280_pressure;Samples;Min_cycle;Max_cycle;Signal;HPM_P1;HPM_P2
2022/02/11 00:00:50;;;;;;;12.48;6.55;;;;;;;1.77;100.00;101871.38;5115444;28;20110;-74
2022/02/11 00:08:29;;;;;;;11.98;5.45;;;;;;;1.72;100.00;101876.59;5114673;28;20032;-74
2022/02/11 00:10:55;;;;;;;12.20;5.68;;;;;;;1.71;100.00;101878.50;5096574;28;20032;-74
2022/02/11 00:13:20;;;;;;;9.75;6.15;;;;;;;1.70;100.00;101878.69;5094612;28;20487;-74
2022/02/11 00:15:47;;;;;;;12.38;5.93;;;;;;;1.67;100.00;101877.22;5082599;28;20028;-74
2022/02/11 00:18:15;;;;;;;9.88;6.07;;;;;;;1.66;100.00;101871.94;5074408;28;20441;-74
2022/02/11 00:20:44;;;;;;;12.73;6.70;;;;;;;1.63;100.00;101877.81;5104285;28;20027;-74
2022/02/11 00:23:09;;;;;;;14.50;6.70;;;;;;;1.63;100.00;101880.56;5086696;28;20036;-74
2022/02/11 00:25:44;;;;;;;13.63;6.70;;;;;;;1.61;100.00;101886.22;5110046;27;20424;-74
2022/02/11 00:28:59;;;;;;;11.98;7.05;;;;;;;1.59;100.00;101879.25;5111378;28;20035;-74
2022/02/11 00:33:31;;;;;;;13.10;6.20;;;;;;;1.56;100.00;101880.50;5089004;28;20048;-74
2022/02/11 00:36:03;;;;;;;12.93;6.78;;;;;;;1.54;100.00;101880.72;5070637;28;20412;-74
2022/02/11 00:38:42;;;;;;;10.10;6.07;;;;;;;1.54;100.00;101886.19;5087453;28;20036;-74
2022/02/11 01:02:50;;;;;;;11.98;6.32;;;;;;;1.36;100.00;101894.06;5081728;28;20028;-73
2022/02/11 01:05:16;;;;;;;14.68;6.60;;;;;;;1.35;100.00;101903.31;5079443;27;20029;-74
2022/02/11 01:07:41;;;;;;;16.33;6.25;;;;;;;1.32;100.00;101901.00;5072073;28;20032;-74
2022/02/11 01:10:07;;;;;;;11.80;6.35;;;;;;;1.27;100.00;101898.84;5065451;27;20036;-73
2022/02/11 01:12:33;;;;;;;12.27;6.93;;;;;;;1.29;100.00;101912.34;5084701;27;20071;-74
2022/02/11 01:14:59;;;;;;;13.45;6.85;;;;;;;1.26;100.00;101913.59;5082347;28;20036;-74
2022/02/11 01:17:45;;;;;;;11.80;6.80;;;;;;;1.23;100.00;101903.03;5090998;28;20073;-74
2022/02/11 01:20:26;;;;;;;12.98;7.43;;;;;;;1.23;100.00;101902.19;5083805;28;20034;-74
2022/02/11 01:28:37;;;;;;;18.60;7.57;;;;;;;1.14;100.00;101904.19;5120005;27;20386;-74
2022/02/11 01:31:20;;;;;;;14.90;7.28;;;;;;;1.11;100.00;101910.94;5093558;27;20053;-74
2022/02/11 01:52:43;;;;;;;15.60;8.27;;;;;;;0.87;100.00;101942.28;5098171;27;20028;-74
2022/02/11 02:01:00;;;;;;;14.30;6.78;;;;;;;0.83;100.00;101937.38;5077447;27;20431;-74
2022/02/11 02:38:00;;;;;;;11.45;5.70;;;;;;;0.69;100.00;101971.09;4992645;28;20045;-74
2022/02/11 02:59:20;;;;;;;12.00;5.22;;;;;;;0.64;100.00;101977.13;5082903;28;20033;-74
2022/02/11 03:02:09;;;;;;;8.35;5.07;;;;;;;0.59;100.00;101975.00;5069816;28;20048;-74
2022/02/11 04:23:23;;;;;;;13.68;4.93;;;;;;;0.33;100.00;102053.91;5116675;27;20441;-73
2022/02/11 04:55:48;;;;;;;12.63;5.50;;;;;;;0.26;100.00;102066.66;5084551;28;20031;-74
2022/02/11 05:00:58;;;;;;;9.07;4.75;;;;;;;0.20;100.00;102049.97;5093908;28;20027;-74
2022/02/11 05:03:23;;;;;;;9.55;4.95;;;;;;;0.18;100.00;102059.38;5113568;27;20054;-74
2022/02/11 05:05:52;;;;;;;8.82;4.80;;;;;;;0.13;100.00;102067.28;5116660;27;20038;-74
2022/02/11 05:08:26;;;;;;;10.40;4.97;;;;;;;0.13;100.00;102065.38;5095432;28;20040;-74
2022/02/11 05:10:53;;;;;;;12.48;4.97;;;;;;;0.10;100.00;102060.31;5096069;28;20051;-74
2022/02/11 05:13:18;;;;;;;12.43;4.28;;;;;;;0.08;100.00;102056.06;5116034;28;20549;-74
2022/02/11 05:15:44;;;;;;;7.38;4.40;;;;;;;0.03;100.00;102070.31;5114862;27;20031;-73
2022/02/11 05:18:10;;;;;;;13.23;4.90;;;;;;;0.01;100.00;102075.09;5088893;28;20062;-74
2022/02/11 05:20:35;;;;;;;9.13;4.28;;;;;;;-0.03;100.00;102084.69;5115460;27;20028;-74
2022/02/11 05:23:05;;;;;;;11.52;4.80;;;;;;;-0.07;100.00;102089.66;5084576;28;20036;-74
2022/02/11 05:25:31;;;;;;;11.45;4.45;;;;;;;-0.15;100.00;102086.16;5112342;27;20496;-74
2022/02/11 05:27:57;;;;;;;8.65;4.47;;;;;;;-0.14;100.00;102093.31;5099576;27;20026;-74
2022/02/11 05:30:22;;;;;;;11.60;4.32;;;;;;;-0.19;100.00;102098.50;5086340;28;20035;-74
2022/02/11 05:32:47;;;;;;;12.88;4.47;;;;;;;-0.27;100.00;102097.53;5085104;28;20043;-74
2022/02/11 05:35:13;;;;;;;10.98;4.47;;;;;;;-0.26;100.00;102103.84;5060646;27;20511;-75
2022/02/11 05:37:38;;;;;;;10.43;4.10;;;;;;;-0.29;100.00;102105.06;5066806;28;20080;-74
2022/02/11 05:40:04;;;;;;;7.97;4.22;;;;;;;-0.32;100.00;102099.97;5089627;28;20031;-74
2022/02/11 05:42:30;;;;;;;8.38;3.92;;;;;;;-0.34;100.00;102104.75;5065888;28;20032;-74
2022/02/11 05:44:55;;;;;;;7.20;4.18;;;;;;;-0.38;100.00;102095.25;5085927;28;20032;-74
2022/02/11 05:47:21;;;;;;;9.57;4.30;;;;;;;-0.39;100.00;102099.00;5101267;28;20031;-74
2022/02/11 05:49:48;;;;;;;10.38;4.20;;;;;;;-0.43;100.00;102103.13;5128923;27;20023;-74
2022/02/11 05:52:14;;;;;;;9.32;4.20;;;;;;;-0.46;100.00;102103.50;5070404;28;20031;-74
2022/02/11 05:54:39;;;;;;;8.80;4.10;;;;;;;-0.50;100.00;102107.63;5106230;27;20088;-74
2022/02/11 05:57:05;;;;;;;13.95;3.75;;;;;;;-0.52;100.00;102104.22;5117556;27;20031;-74
2022/02/11 05:59:30;;;;;;;13.57;4.47;;;;;;;-0.53;100.00;102107.97;5113271;28;20031;-74
2022/02/11 06:01:56;;;;;;;10.13;4.38;;;;;;;-0.60;100.00;102107.84;5094903;28;20032;-74
2022/02/11 06:04:24;;;;;;;9.20;4.25;;;;;;;-0.59;100.00;102108.69;5059035;28;20040;-74
2022/02/11 06:06:51;;;;;;;9.38;4.00;;;;;;;-0.63;100.00;102119.13;5090487;28;20055;-74
2022/02/11 06:09:18;;;;;;;11.50;4.30;;;;;;;-0.66;100.00;102121.38;5125860;27;20028;-74
2022/02/11 06:11:44;;;;;;;9.18;4.07;;;;;;;-0.66;100.00;102124.13;5116368;27;20066;-74
2022/02/11 06:14:10;;;;;;;10.23;4.45;;;;;;;-0.71;100.00;102121.91;5087395;27;20035;-74
2022/02/11 06:16:35;;;;;;;7.85;4.20;;;;;;;-0.74;100.00;102131.31;5106930;28;20023;-74
2022/02/11 06:19:00;;;;;;;9.02;4.28;;;;;;;-0.73;100.00;102130.25;5112773;27;20034;-74
2022/02/11 06:21:26;;;;;;;12.82;4.45;;;;;;;-0.77;100.00;102133.56;5124126;27;20038;-74
2022/02/11 06:23:55;;;;;;;7.30;4.38;;;;;;;-0.77;100.00;102128.94;5126391;27;20360;-74
2022/02/11 06:26:24;;;;;;;10.85;4.30;;;;;;;-0.81;100.00;102132.19;5130570;27;20503;-74
2022/02/11 06:28:50;;;;;;;10.45;4.55;;;;;;;-0.85;100.00;102131.72;5112389;27;20031;-73
2022/02/11 06:31:16;;;;;;;12.10;4.93;;;;;;;-0.86;100.00;102148.25;5098692;28;20524;-74
2022/02/11 06:33:42;;;;;;;12.80;4.88;;;;;;;-0.88;100.00;102140.25;5118348;27;20086;-74
2022/02/11 06:36:07;;;;;;;9.65;4.75;;;;;;;-0.90;100.00;102154.06;5113246;28;20028;-74
2022/02/11 06:38:33;;;;;;;9.07;4.57;;;;;;;-0.91;100.00;102154.25;5084848;28;20035;-74
2022/02/11 06:40:58;;;;;;;11.00;5.10;;;;;;;-0.92;100.00;102158.00;5095724;28;20019;-74
2022/02/11 06:43:24;;;;;;;12.82;5.53;;;;;;;-0.98;100.00;102161.44;5110007;28;20076;-74
2022/02/11 06:45:49;;;;;;;9.63;4.47;;;;;;;-0.98;100.00;102162.28;5100275;28;20062;-74
2022/02/11 06:48:19;;;;;;;11.68;5.30;;;;;;;-1.01;100.00;102170.81;5095810;28;20032;-74
2022/02/11 06:50:46;;;;;;;9.82;4.70;;;;;;;-1.04;100.00;102173.06;5108557;28;20035;-73
2022/02/11 06:53:13;;;;;;;14.30;5.85;;;;;;;-1.03;100.00;102185.66;5127058;28;20039;-74
2022/02/11 06:55:38;;;;;;;11.07;4.95;;;;;;;-1.06;100.00;102195.03;5099489;28;20404;-74
2022/02/11 06:58:04;;;;;;;9.05;4.63;;;;;;;-1.09;100.00;102192.66;5081790;28;20032;-73
2022/02/11 07:00:29;;;;;;;16.98;5.85;;;;;;;-1.13;100.00;102194.91;5105710;28;20058;-74
2022/02/11 07:02:55;;;;;;;12.15;5.53;;;;;;;-1.16;100.00;102192.53;5105760;28;20038;-74
2022/02/11 07:05:21;;;;;;;11.52;6.15;;;;;;;-1.16;100.00;102188.97;5100486;28;20035;-73
2022/02/11 07:07:47;;;;;;;12.90;5.18;;;;;;;-1.18;100.00;102194.56;5099115;28;20037;-74
2022/02/11 07:10:13;;;;;;;12.70;5.53;;;;;;;-1.20;100.00;102201.22;5103721;28;20099;-74
2022/02/11 07:12:38;;;;;;;11.05;5.07;;;;;;;-1.22;100.00;102206.88;5115289;28;20046;-73
2022/02/11 07:15:05;;;;;;;11.40;5.10;;;;;;;-1.25;100.00;102215.41;5115823;28;20028;-75
2022/02/11 07:17:30;;;;;;;15.40;5.45;;;;;;;-1.24;100.00;102214.38;5101476;28;20042;-75
2022/02/11 07:19:56;;;;;;;11.65;5.60;;;;;;;-1.27;100.00;102214.72;5103930;28;20032;-74
2022/02/11 07:22:21;;;;;;;9.10;4.78;;;;;;;-1.26;100.00;102221.84;5107921;27;20088;-72
2022/02/11 07:24:49;;;;;;;9.85;5.25;;;;;;;-1.25;100.00;102239.94;5078942;28;20477;-72
2022/02/11 07:27:14;;;;;;;8.27;5.00;;;;;;;-1.23;100.00;102237.00;5098749;28;20054;-77
2022/02/11 07:29:40;;;;;;;10.73;4.80;;;;;;;-1.28;100.00;102242.13;5101282;28;20459;-77
2022/02/11 07:32:06;;;;;;;9.57;4.90;;;;;;;-1.25;100.00;102244.53;5077681;28;20047;-77
2022/02/11 07:34:31;;;;;;;11.10;5.45;;;;;;;-1.29;100.00;102241.28;5085602;27;20583;-77
2022/02/11 07:36:58;;;;;;;8.07;4.50;;;;;;;-1.28;100.00;102245.75;5119444;28;20028;-77
2022/02/11 07:39:23;;;;;;;12.60;4.90;;;;;;;-1.29;100.00;102249.47;5089586;28;20039;-77
2022/02/11 07:41:49;;;;;;;14.88;5.10;;;;;;;-1.28;100.00;102256.63;5082778;28;20383;-77
2022/02/11 07:44:14;;;;;;;15.27;5.13;;;;;;;-1.29;100.00;102254.91;5067626;28;20061;-77
2022/02/11 07:46:40;;;;;;;10.45;4.97;;;;;;;-1.27;100.00;102258.34;5078784;28;20031;-77
2022/02/11 07:49:05;;;;;;;8.95;4.18;;;;;;;-1.23;100.00;102267.00;5058381;28;20027;-77
2022/02/11 07:51:31;;;;;;;10.57;4.80;;;;;;;-1.17;100.00;102259.00;5085075;28;20035;-77
2022/02/11 07:53:58;;;;;;;13.18;4.60;;;;;;;-1.17;100.00;102263.56;5084703;28;20098;-76
2022/02/11 07:56:24;;;;;;;11.65;4.38;;;;;;;-1.10;100.00;102266.47;5072468;28;20379;-77
2022/02/11 07:58:51;;;;;;;12.05;5.13;;;;;;;-1.09;100.00;102282.66;5085178;28;20023;-78
2022/02/11 08:01:19;;;;;;;12.60;4.65;;;;;;;-1.08;100.00;102281.66;5066452;28;20035;-78
2022/02/11 08:03:45;;;;;;;13.02;4.63;;;;;;;-1.04;100.00;102282.13;5082167;28;20181;-77
2022/02/11 08:06:11;;;;;;;11.30;4.68;;;;;;;-1.01;100.00;102279.91;5082328;28;20028;-77
2022/02/11 08:08:37;;;;;;;11.25;5.03;;;;;;;-0.95;100.00;102278.34;5067901;27;20043;-77
2022/02/11 08:11:02;;;;;;;12.15;5.15;;;;;;;-0.87;100.00;102280.22;5092198;28;20032;-77
2022/02/11 08:13:28;;;;;;;8.32;4.13;;;;;;;-0.76;100.00;102294.31;5094687;28;20024;-77
2022/02/11 08:15:54;;;;;;;13.98;5.32;;;;;;;-0.66;100.00;102296.03;5076850;28;20050;-77
2022/02/11 08:18:20;;;;;;;12.15;4.57;;;;;;;-0.58;100.00;102296.00;5119257;27;20053;-77
2022/02/11 08:20:46;;;;;;;14.73;5.05;;;;;;;-0.48;100.00;102297.47;5095684;28;20024;-77
2022/02/11 08:23:11;;;;;;;9.30;4.55;;;;;;;-0.35;100.00;102299.63;5075346;28;20049;-77
2022/02/11 08:25:37;;;;;;;8.15;3.80;;;;;;;-0.26;100.00;102300.44;5079331;28;20050;-77
2022/02/11 08:28:02;;;;;;;13.50;4.63;;;;;;;-0.16;100.00;102301.06;5111174;28;20269;-77
2022/02/11 08:30:28;;;;;;;11.30;4.65;;;;;;;-0.02;100.00;102307.66;5085413;28;20080;-77
2022/02/11 08:32:53;;;;;;;10.30;4.10;;;;;;;0.09;100.00;102322.78;5096504;27;20067;-77
2022/02/11 08:35:19;;;;;;;11.55;4.18;;;;;;;0.20;100.00;102320.47;5092647;27;20395;-77
2022/02/11 08:37:44;;;;;;;8.77;3.80;;;;;;;0.30;100.00;102319.38;5109268;28;20115;-77
2022/02/11 08:40:10;;;;;;;8.90;3.83;;;;;;;0.40;100.00;102323.56;5097247;28;20036;-77
2022/02/11 08:42:36;;;;;;;10.38;4.22;;;;;;;0.53;100.00;102331.19;5098330;27;20028;-77
2022/02/11 08:45:02;;;;;;;10.05;4.57;;;;;;;0.63;100.00;102337.22;5102126;27;20046;-77
2022/02/11 08:47:28;;;;;;;10.23;4.10;;;;;;;0.76;100.00;102335.78;5115824;27;20047;-78
2022/02/11 08:49:54;;;;;;;7.25;4.10;;;;;;;0.88;100.00;102348.81;5082177;27;20039;-78
2022/02/11 08:52:25;;;;;;;11.20;4.57;;;;;;;1.03;100.00;102339.78;5117734;27;20027;-78
2022/02/11 08:54:51;;;;;;;11.57;4.30;;;;;;;1.13;100.00;102342.25;5105757;27;20027;-78
2022/02/11 08:57:17;;;;;;;8.85;4.72;;;;;;;1.24;100.00;102347.28;5075118;27;20051;-79
2022/02/11 08:59:42;;;;;;;12.48;4.70;;;;;;;1.35;100.00;102349.53;5076633;28;20043;-79
2022/02/11 09:02:11;;;;;;;12.23;5.55;;;;;;;1.48;100.00;102351.63;5090300;27;20038;-79
2022/02/11 09:04:38;;;;;;;15.60;4.82;;;;;;;1.58;100.00;102343.97;5105582;27;20448;-80
2022/02/11 09:07:04;;;;;;;12.50;4.78;;;;;;;1.69;100.00;102348.13;5105394;27;20501;-79
2022/02/11 09:09:29;;;;;;;13.15;4.85;;;;;;;1.79;100.00;102354.16;5101262;27;20031;-79
2022/02/11 09:11:55;;;;;;;8.63;4.60;;;;;;;1.92;100.00;102354.34;5102523;27;20027;-79
2022/02/11 09:14:20;;;;;;;10.23;4.35;;;;;;;2.04;100.00;102353.84;5091834;28;20039;-79
2022/02/11 09:16:45;;;;;;;13.25;4.97;;;;;;;2.16;100.00;102364.09;5104764;27;20069;-79
2022/02/11 09:19:11;;;;;;;13.77;5.07;;;;;;;2.28;100.00;102363.59;5088316;27;20395;-80
2022/02/11 09:21:37;;;;;;;11.05;4.38;;;;;;;2.41;100.00;102371.97;5100092;27;20035;-73
2022/02/11 09:24:03;;;;;;;15.73;5.63;;;;;;;2.52;100.00;102368.72;5131325;27;20042;-73
2022/02/11 09:26:28;;;;;;;13.13;6.05;;;;;;;2.63;100.00;102365.44;5099613;27;20059;-73
2022/02/11 09:28:54;;;;;;;17.30;7.90;;;;;;;2.74;100.00;102365.97;5112359;27;20444;-73
2022/02/11 09:31:26;;;;;;;16.75;7.22;;;;;;;2.85;100.00;102363.53;5117361;27;20059;-74
2022/02/11 09:33:52;;;;;;;13.32;7.15;;;;;;;2.99;100.00;102364.50;5100958;28;20136;-73
2022/02/11 09:36:19;;;;;;;20.52;7.15;;;;;;;3.12;100.00;102361.00;5091330;27;20031;-73
2022/02/11 09:38:44;;;;;;;11.57;6.90;;;;;;;3.25;100.00;102363.00;5114880;28;20023;-73
2022/02/11 09:41:10;;;;;;;13.18;7.60;;;;;;;3.38;100.00;102359.53;5103609;27;20030;-73
2022/02/11 09:43:35;;;;;;;12.07;7.78;;;;;;;3.48;100.00;102358.13;5089790;28;20574;-73
2022/02/11 09:46:01;;;;;;;14.20;7.45;;;;;;;3.60;100.00;102360.28;5108119;28;20027;-73
2022/02/11 09:48:26;;;;;;;14.25;8.23;;;;;;;3.69;100.00;102359.06;5075200;27;20039;-73
2022/02/11 09:50:55;;;;;;;19.27;8.80;;;;;;;3.81;100.00;102363.78;5096792;27;20036;-73
2022/02/11 09:53:26;;;;;;;14.05;7.72;;;;;;;3.96;100.00;102360.06;5069249;28;20432;-73
2022/02/11 09:55:51;;;;;;;16.45;8.57;;;;;;;4.11;100.00;102352.47;5088203;28;20042;-73
2022/02/11 09:58:18;;;;;;;16.85;8.80;;;;;;;4.27;100.00;102366.94;5099673;27;20031;-73
2022/02/11 10:00:48;;;;;;;18.60;8.38;;;;;;;4.40;100.00;102355.94;5092175;28;20054;-73
2022/02/11 10:03:30;;;;;;;13.85;7.47;;;;;;;4.55;100.00;102361.28;5088286;27;20058;-74
2022/02/11 10:06:03;;;;;;;19.73;9.25;;;;;;;4.69;100.00;102360.25;5098516;27;20674;-73
2022/02/11 10:08:29;;;;;;;;;;;;;;;4.83;100.00;102353.69;5094832;27;20038;-73
2022/02/11 10:10:58;;;;;;;14.55;7.15;;;;;;;4.96;100.00;102350.13;5079792;28;19916;-73
2022/02/11 10:13:34;;;;;;;19.88;7.70;;;;;;;5.08;100.00;102351.16;5098654;27;20034;-73
2022/02/11 10:16:02;;;;;;;14.70;5.18;;;;;;;5.20;100.00;102347.75;5080572;27;20035;-73
2022/02/11 10:18:31;;;;;;;13.75;6.20;;;;;;;5.32;100.00;102344.16;5094779;28;20574;-73
2022/02/11 10:21:01;;;;;;;19.33;6.13;;;;;;;5.45;100.00;102351.53;5116226;27;20441;-73
2022/02/11 10:23:41;;;;;;;15.95;5.68;;;;;;;5.58;100.00;102346.00;5082466;28;20466;-73
2022/02/11 10:26:20;;;;;;;14.18;5.63;;;;;;;5.72;100.00;102348.72;5092163;27;20035;-73
2022/02/11 10:28:52;;;;;;;13.43;4.88;;;;;;;5.81;100.00;102336.38;5088891;27;20541;-73
2022/02/11 10:31:27;;;;;;;15.90;5.25;;;;;;;5.89;100.00;102336.13;5082059;28;20050;-73
2022/02/11 10:34:03;;;;;;;17.25;4.97;;;;;;;5.95;100.00;102335.28;5098687;27;20499;-73
2022/02/11 10:36:44;;;;;;;19.35;5.03;;;;;;;6.10;100.00;102340.53;5117904;28;20036;-73
2022/02/11 10:39:22;;;;;;;20.88;4.78;;;;;;;6.21;100.00;102342.63;5089422;27;20115;-73
2022/02/11 10:41:49;;;;;;;17.15;4.15;;;;;;;6.32;100.00;102349.31;5084408;28;20027;-73
2022/02/11 10:44:17;;;;;;;10.77;3.72;;;;;;;6.39;100.00;102350.16;5080749;28;20031;-73
2022/02/11 10:46:45;;;;;;;17.23;3.88;;;;;;;6.47;100.00;102346.28;5106725;28;20051;-73
2022/02/11 10:49:11;;;;;;;13.05;4.32;;;;;;;6.54;100.00;102352.59;5075854;28;20027;-73
2022/02/11 10:51:45;;;;;;;16.48;4.57;;;;;;;6.60;100.00;102353.63;5076606;28;20032;-73
2022/02/11 10:54:35;;;;;;;17.77;4.85;;;;;;;6.64;100.00;102358.47;5061946;28;20032;-73
2022/02/11 10:57:03;;;;;;;13.73;4.18;;;;;;;6.75;100.00;102367.97;5100587;28;20027;-73
2022/02/11 10:59:34;;;;;;;14.25;3.83;;;;;;;6.83;100.00;102364.94;5120275;27;20150;-73
2022/02/11 11:02:04;;;;;;;14.48;4.30;;;;;;;6.89;100.00;102365.94;5079269;28;20523;-73
2022/02/11 11:04:30;;;;;;;20.13;4.28;;;;;;;7.01;100.00;102364.16;5100540;28;20028;-73
2022/02/11 11:06:56;;;;;;;13.55;4.50;;;;;;;7.07;100.00;102368.75;5099145;28;20124;-73
2022/02/11 11:09:22;;;;;;;10.63;3.60;;;;;;;7.18;100.00;102366.34;5074583;27;20035;-73
2022/02/11 11:11:48;;;;;;;15.68;3.83;;;;;;;7.24;100.00;102365.44;5096285;28;20500;-73
2022/02/11 11:14:16;;;;;;;13.23;3.88;;;;;;;7.33;100.00;102366.88;5096948;27;20024;-73
2022/02/11 11:16:44;;;;;;;13.73;4.18;;;;;;;7.39;100.00;102361.25;5089093;28;20043;-73
2022/02/11 11:19:09;;;;;;;17.15;4.13;;;;;;;7.43;100.00;102361.63;5089220;27;20035;-73
2022/02/11 11:21:39;;;;;;;16.88;3.90;;;;;;;7.48;99.49;102358.19;5103148;27;20118;-73
2022/02/11 11:24:05;;;;;;;16.02;4.20;;;;;;;7.55;98.51;102358.97;5109715;27;20065;-73
2022/02/11 11:26:42;;;;;;;13.15;3.67;;;;;;;7.58;97.15;102353.00;5073463;28;20384;-76
2022/02/11 11:29:18;;;;;;;13.57;2.83;;;;;;;7.72;99.78;102346.25;5080125;28;20101;-78
2022/02/11 11:31:56;;;;;;;12.82;3.30;;;;;;;7.74;97.13;102338.53;5089830;28;20032;-77
2022/02/11 11:34:21;;;;;;;14.50;3.47;;;;;;;7.77;97.74;102340.88;5111748;28;20092;-77
2022/02/11 11:36:56;;;;;;;13.98;2.97;;;;;;;7.91;98.79;102337.91;5096647;28;20044;-77
2022/02/11 11:39:21;;;;;;;19.70;3.35;;;;;;;7.97;97.97;102324.03;5080797;28;20492;-77
2022/02/11 11:42:03;;;;;;;12.98;2.92;;;;;;;8.01;95.57;102316.94;5070776;28;20105;-76
2022/02/11 11:44:28;;;;;;;10.82;1.92;;;;;;;8.09;92.69;102321.31;5098876;27;20023;-77
2022/02/11 11:47:02;;;;;;;15.95;2.53;;;;;;;8.15;92.56;102323.13;5078904;28;20515;-77
2022/02/11 11:49:38;;;;;;;14.27;1.80;;;;;;;8.33;88.97;102315.84;5088772;28;20066;-76
2022/02/11 11:52:03;;;;;;;11.95;2.60;;;;;;;8.27;89.36;102307.44;5086818;28;20032;-76
2022/02/11 11:54:29;;;;;;;12.10;1.60;;;;;;;8.23;86.41;102316.44;5099773;28;20043;-76
2022/02/11 11:57:00;;;;;;;12.02;1.70;;;;;;;8.36;85.00;102298.78;5096510;28;20057;-76
2022/02/11 11:59:32;;;;;;;8.68;1.40;;;;;;;8.39;85.94;102303.91;5099341;27;20040;-77
2022/02/11 12:02:07;;;;;;;10.55;2.35;;;;;;;8.46;85.23;102305.47;5097331;28;20127;-77
2022/02/11 12:04:39;;;;;;;8.27;1.67;;;;;;;8.41;84.23;102301.72;5077635;28;20024;-77
2022/02/11 12:07:15;;;;;;;11.10;1.80;;;;;;;8.40;85.32;102297.28;5109827;28;20061;-77
2022/02/11 12:09:46;;;;;;;14.13;2.83;;;;;;;8.40;85.70;102297.28;5099159;28;20028;-77
2022/02/11 12:12:12;;;;;;;10.07;1.67;;;;;;;8.41;87.78;102296.19;5114213;28;20019;-73
2022/02/11 12:14:42;;;;;;;6.97;1.58;;;;;;;8.41;86.61;102297.03;5091341;27;20501;-73
2022/02/11 12:17:09;;;;;;;10.85;2.13;;;;;;;8.44;83.20;102295.69;5080513;28;20027;-73
2022/02/11 12:19:34;;;;;;;12.40;1.90;;;;;;;8.48;83.04;102292.22;5058911;28;20067;-73
2022/02/11 12:22:00;;;;;;;8.38;1.75;;;;;;;8.40;84.37;102295.34;5054923;28;20028;-73
2022/02/11 12:27:30;;;;;;;12.10;2.05;;;;;;;8.43;83.17;102282.94;5086429;28;20031;-73
2022/02/11 12:30:01;;;;;;;10.95;1.80;;;;;;;8.57;84.79;102273.34;5081101;28;20439;-73
2022/02/11 12:32:46;;;;;;;8.48;1.67;;;;;;;8.70;80.35;102272.31;5091182;28;20444;-73
2022/02/11 12:35:16;;;;;;;8.90;1.27;;;;;;;8.78;82.18;102273.88;5056037;28;20557;-73
2022/02/11 12:37:43;;;;;;;9.70;1.77;;;;;;;8.77;81.22;102273.00;5067921;28;20031;-73
2022/02/11 12:40:12;;;;;;;6.55;1.55;;;;;;;8.84;79.72;102267.38;5066698;28;20032;-73
2022/02/11 12:42:42;;;;;;;11.88;1.70;;;;;;;8.83;77.56;102269.31;5081897;28;20042;-73
2022/02/11 12:45:09;;;;;;;10.75;1.70;;;;;;;8.84;75.76;102267.38;5052020;28;20040;-73
2022/02/11 12:47:35;;;;;;;8.73;1.73;;;;;;;8.82;77.34;102262.06;5075439;28;20388;-73
2022/02/11 12:50:01;;;;;;;12.32;2.20;;;;;;;8.80;77.63;102260.63;5080350;28;20036;-73
2022/02/11 12:52:29;;;;;;;10.85;1.88;;;;;;;8.79;77.45;102259.78;5096515;28;20047;-73
2022/02/11 12:55:06;;;;;;;7.53;1.70;;;;;;;8.90;72.37;102252.56;5061231;28;20028;-73
2022/02/11 12:57:33;;;;;;;8.32;1.42;;;;;;;8.93;71.57;102252.06;5090917;28;20082;-73
2022/02/11 12:59:59;;;;;;;9.13;1.80;;;;;;;8.88;73.03;102249.19;5082223;28;20043;-73
2022/02/11 13:02:29;;;;;;;10.05;1.58;;;;;;;8.89;72.30;102250.88;5070871;28;20456;-73
2022/02/11 13:05:20;;;;;;;9.35;1.40;;;;;;;8.87;75.23;102236.41;5060578;28;20063;-73
2022/02/11 13:07:48;;;;;;;12.23;1.52;;;;;;;8.89;72.31;102231.50;5057039;28;20027;-73
2022/02/11 13:10:27;;;;;;;9.40;1.65;;;;;;;8.87;75.97;102233.66;5071675;28;20040;-73
2022/02/11 13:12:54;;;;;;;6.30;1.92;;;;;;;8.81;73.46;102231.84;5067136;28;20475;-73
2022/02/11 13:15:20;;;;;;;13.60;1.55;;;;;;;8.81;72.59;102227.16;5060140;28;20039;-73
2022/02/11 13:17:46;;;;;;;10.07;1.73;;;;;;;8.83;72.34;102233.28;5078990;28;20028;-73
2022/02/11 13:20:18;;;;;;;7.10;1.60;;;;;;;8.80;72.16;102232.91;5075167;28;20051;-73
2022/02/11 13:22:44;;;;;;;7.50;1.48;;;;;;;8.81;73.06;102229.06;5060357;28;20039;-73
2022/02/11 13:25:10;;;;;;;9.30;1.90;;;;;;;8.80;73.47;102224.59;5080214;28;20032;-73
2022/02/11 13:27:46;;;;;;;6.38;1.40;;;;;;;8.80;74.60;102219.06;5061748;28;20056;-73
2022/02/11 13:30:12;;;;;;;8.40;1.42;;;;;;;8.82;77.89;102209.44;5071113;28;20059;-73
2022/02/11 13:32:38;;;;;;;5.35;1.55;;;;;;;8.85;73.99;102219.19;5062115;28;20079;-73
2022/02/11 13:35:04;;;;;;;8.00;1.65;;;;;;;8.93;72.46;102219.66;5058583;28;20043;-73
2022/02/11 13:37:45;;;;;;;7.00;1.58;;;;;;;9.04;69.28;102215.19;5054017;28;20066;-73
2022/02/11 13:40:25;;;;;;;7.82;1.92;;;;;;;9.14;67.69;102211.84;5072489;28;20051;-73
2022/02/11 13:42:53;;;;;;;5.13;1.50;;;;;;;9.22;68.28;102202.28;5070403;28;20123;-73
2022/02/11 13:45:19;;;;;;;6.90;1.92;;;;;;;9.23;68.43;102209.53;5085106;28;20043;-73
2022/02/11 13:48:00;;;;;;;8.00;2.17;;;;;;;9.10;68.46;102211.44;5094020;28;20028;-73
2022/02/11 13:50:25;;;;;;;8.98;1.98;;;;;;;9.13;68.17;102210.97;5089676;28;20477;-73
2022/02/11 13:53:03;;;;;;;7.10;1.95;;;;;;;9.20;66.44;102207.25;5079424;28;20036;-73
2022/02/11 13:55:30;;;;;;;6.72;1.98;;;;;;;9.21;66.43;102200.59;5086666;28;20024;-73
2022/02/11 13:57:56;;;;;;;6.65;1.95;;;;;;;9.21;67.00;102195.06;5068215;28;20054;-73
2022/02/11 14:00:28;;;;;;;8.15;1.98;;;;;;;9.20;66.51;102196.16;5075155;28;20495;-73
2022/02/11 14:02:53;;;;;;;5.90;1.85;;;;;;;9.17;67.16;102192.78;5093618;28;20119;-73
2022/02/11 14:05:19;;;;;;;11.25;2.42;;;;;;;9.18;67.80;102197.22;5063212;28;20039;-77
2022/02/11 14:07:51;;;;;;;8.85;2.50;;;;;;;9.15;66.21;102183.84;5081022;28;20480;-80
2022/02/11 14:10:17;;;;;;;7.22;1.90;;;;;;;9.14;67.28;102190.50;5091862;28;20032;-81
2022/02/11 14:12:43;;;;;;;9.80;2.10;;;;;;;9.06;67.67;102182.56;5069924;28;20047;-80
2022/02/11 14:15:08;;;;;;;8.68;1.98;;;;;;;9.00;68.58;102193.75;5087153;28;20089;-79
2022/02/11 14:17:34;;;;;;;7.75;1.88;;;;;;;8.99;68.21;102192.91;5087296;28;20035;-80
2022/02/11 14:20:01;;;;;;;8.02;1.80;;;;;;;8.95;66.15;102194.50;5079044;28;20042;-79
2022/02/11 14:22:26;;;;;;;6.57;1.73;;;;;;;8.94;66.24;102190.00;5090932;28;20052;-80
2022/02/11 14:24:52;;;;;;;8.27;1.85;;;;;;;8.92;68.28;102186.66;5099883;28;20066;-80
2022/02/11 14:27:17;;;;;;;5.85;1.75;;;;;;;8.87;68.65;102183.78;5076219;28;20043;-80
2022/02/11 14:29:43;;;;;;;7.97;1.85;;;;;;;8.85;68.35;102184.00;5044451;28;20485;-80
2022/02/11 14:32:08;;;;;;;8.57;2.42;;;;;;;8.85;68.90;102180.41;5065665;28;20051;-80
2022/02/11 14:34:34;;;;;;;11.77;2.17;;;;;;;8.85;67.07;102188.72;5053851;28;20060;-80
2022/02/11 14:36:59;;;;;;;9.55;1.88;;;;;;;8.86;70.01;102188.47;5075755;28;20034;-79
2022/02/11 14:39:25;;;;;;;9.52;2.20;;;;;;;8.86;70.77;102182.94;5081890;28;20508;-79
2022/02/11 14:41:52;;;;;;;8.55;2.17;;;;;;;8.86;74.20;102177.41;5108202;28;20028;-79
2022/02/11 14:44:20;;;;;;;7.32;1.80;;;;;;;8.87;71.95;102175.47;5053458;28;20036;-79
2022/02/11 14:46:46;;;;;;;11.93;1.90;;;;;;;8.88;71.56;102175.19;5097726;28;20035;-80
2022/02/11 14:49:12;;;;;;;8.98;1.98;;;;;;;8.87;71.52;102179.06;5058758;28;20043;-80
2022/02/11 14:51:37;;;;;;;7.53;1.70;;;;;;;8.86;69.33;102170.97;5075629;28;20377;-79
2022/02/11 14:54:11;;;;;;;12.82;1.80;;;;;;;8.83;68.87;102175.13;5079855;28;20490;-79
2022/02/11 14:56:40;;;;;;;8.02;2.10;;;;;;;8.85;68.18;102169.31;5084864;28;20023;-79
2022/02/11 14:59:08;;;;;;;6.43;1.73;;;;;;;8.83;68.46;102174.25;5083146;28;20027;-79
2022/02/11 15:01:38;;;;;;;10.23;1.85;;;;;;;8.77;70.13;102173.28;5096483;28;20024;-78
2022/02/11 15:04:04;;;;;;;7.45;1.90;;;;;;;8.75;70.30;102174.59;5053567;28;20479;-79
2022/02/11 15:06:29;;;;;;;8.82;2.00;;;;;;;8.69;70.37;102168.09;5071856;28;20027;-79
2022/02/11 15:08:55;;;;;;;9.63;1.88;;;;;;;8.67;70.54;102173.06;5079467;28;20039;-79
2022/02/11 15:11:20;;;;;;;8.30;1.70;;;;;;;8.63;69.27;102172.69;5078831;28;20025;-79
2022/02/11 15:13:46;;;;;;;8.20;2.28;;;;;;;8.61;68.72;102163.78;5060895;28;20053;-79